sensor_id;sensor_type;location;lat;lon;timestamp;temperature;humidity
51825;DHT22;37879;52.986;6.282;2023-04-24T00:00:15;10.60;99.90
51825;DHT22;37879;52.986;6.282;2023-04-24T00:02:44;10.50;99.90
51825;DHT22;37879;52.986;6.282;2023-04-24T00:05:13;10.50;99.90
51825;DHT22;37879;52.986;6.282;2023-04-24T00:07:39;10.50;99.90
51825;DHT22;37879;52.986;6.282;2023-04-24T00:10:06;10.50;99.90
51825;DHT22;37879;52.986;6.282;2023-04-24T00:12:32;10.50;99.90
51825;DHT22;37879;52.986;6.282;2023-04-24T00:14:57;10.40;99.90
51825;DHT22;37879;52.986;6.282;2023-04-24T00:17:23;10.40;99.90
51825;DHT22;37879;52.986;6.282;2023-04-24T00:19:49;10.40;99.90
51825;DHT22;37879;52.986;6.282;2023-04-24T00:22:24;10.40;99.90
51825;DHT22;37879;52.986;6.282;2023-04-24T00:24:50;10.40;99.90
51825;DHT22;37879;52.986;6.282;2023-04-24T00:27:15;10.40;99.90
51825;DHT22;37879;52.986;6.282;2023-04-24T00:29:41;10.40;99.90
51825;DHT22;37879;52.986;6.282;2023-04-24T00:32:06;10.90;99.90
51825;DHT22;37879;52.986;6.282;2023-04-24T00:34:32;10.80;99.90
51825;DHT22;37879;52.986;6.282;2023-04-24T00:36:58;10.30;99.90
51825;DHT22;37879;52.986;6.282;2023-04-24T00:39:23;10.30;99.90
51825;DHT22;37879;52.986;6.282;2023-04-24T00:41:49;10.30;99.90
51825;DHT22;37879;52.986;6.282;2023-04-24T00:44:16;10.30;99.90
51825;DHT22;37879;52.986;6.282;2023-04-24T00:46:42;10.50;99.90
51825;DHT22;37879;52.986;6.282;2023-04-24T00:49:08;10.20;99.90
51825;DHT22;37879;52.986;6.282;2023-04-24T00:51:34;10.20;99.90
51825;DHT22;37879;52.986;6.282;2023-04-24T00:54:00;10.20;99.90
51825;DHT22;37879;52.986;6.282;2023-04-24T00:56:27;10.20;99.90
51825;DHT22;37879;52.986;6.282;2023-04-24T00:58:53;10.20;99.90
51825;DHT22;37879;52.986;6.282;2023-04-24T01:01:20;10.20;99.90
51825;DHT22;37879;52.986;6.282;2023-04-24T01:03:51;10.90;99.90
51825;DHT22;37879;52.986;6.282;2023-04-24T01:06:17;10.70;99.90
51825;DHT22;37879;52.986;6.282;2023-04-24T01:08:43;10.20;99.90
51825;DHT22;37879;52.986;6.282;2023-04-24T01:11:10;10.40;99.90
51825;DHT22;37879;52.986;6.282;2023-04-24T01:13:35;10.20;99.90
51825;DHT22;37879;52.986;6.282;2023-04-24T01:16:01;10.20;99.90
51825;DHT22;37879;52.986;6.282;2023-04-24T01:18:27;10.20;99.90
51825;DHT22;37879;52.986;6.282;2023-04-24T01:20:57;10.30;99.90
51825;DHT22;37879;52.986;6.282;2023-04-24T01:23:23;10.10;99.90
51825;DHT22;37879;52.986;6.282;2023-04-24T01:25:49;10.20;99.90
51825;DHT22;37879;52.986;6.282;2023-04-24T01:28:16;10.20;99.90
51825;DHT22;37879;52.986;6.282;2023-04-24T01:30:42;10.20;99.90
51825;DHT22;37879;52.986;6.282;2023-04-24T01:33:08;10.50;99.90
51825;DHT22;37879;52.986;6.282;2023-04-24T01:35:34;10.20;99.90
51825;DHT22;37879;52.986;6.282;2023-04-24T01:38:01;10.10;99.90
51825;DHT22;37879;52.986;6.282;2023-04-24T01:40:27;10.10;99.90
51825;DHT22;37879;52.986;6.282;2023-04-24T01:42:53;10.80;99.90
51825;DHT22;37879;52.986;6.282;2023-04-24T01:45:18;10.00;99.90
51825;DHT22;37879;52.986;6.282;2023-04-24T01:47:45;10.10;99.90
51825;DHT22;37879;52.986;6.282;2023-04-24T01:50:12;10.50;99.90
51825;DHT22;37879;52.986;6.282;2023-04-24T01:52:38;10.20;99.90
51825;DHT22;37879;52.986;6.282;2023-04-24T01:55:04;10.10;99.90
51825;DHT22;37879;52.986;6.282;2023-04-24T01:57:31;10.20;99.90
51825;DHT22;37879;52.986;6.282;2023-04-24T01:59:57;10.20;99.90
51825;DHT22;37879;52.986;6.282;2023-04-24T02:02:23;10.50;99.90
51825;DHT22;37879;52.986;6.282;2023-04-24T02:04:56;10.20;99.90
51825;DHT22;37879;52.986;6.282;2023-04-24T02:07:22;10.20;99.90
51825;DHT22;37879;52.986;6.282;2023-04-24T02:09:48;10.80;99.90
51825;DHT22;37879;52.986;6.282;2023-04-24T02:12:17;10.20;99.90
51825;DHT22;37879;52.986;6.282;2023-04-24T02:14:43;10.50;99.90
51825;DHT22;37879;52.986;6.282;2023-04-24T02:17:09;10.20;99.90
51825;DHT22;37879;52.986;6.282;2023-04-24T02:19:38;10.20;99.90
51825;DHT22;37879;52.986;6.282;2023-04-24T02:22:04;10.20;99.90
51825;DHT22;37879;52.986;6.282;2023-04-24T02:24:30;10.30;99.90
51825;DHT22;37879;52.986;6.282;2023-04-24T02:26:55;10.20;99.90
51825;DHT22;37879;52.986;6.282;2023-04-24T02:29:21;10.30;99.90
51825;DHT22;37879;52.986;6.282;2023-04-24T02:31:46;10.30;99.90
51825;DHT22;37879;52.986;6.282;2023-04-24T02:34:12;10.30;99.90
51825;DHT22;37879;52.986;6.282;2023-04-24T02:36:38;10.30;99.90
51825;DHT22;37879;52.986;6.282;2023-04-24T02:39:03;10.30;99.90
51825;DHT22;37879;52.986;6.282;2023-04-24T02:41:29;10.30;99.90
51825;DHT22;37879;52.986;6.282;2023-04-24T02:43:58;10.30;99.90
51825;DHT22;37879;52.986;6.282;2023-04-24T02:46:24;10.30;99.90
51825;DHT22;37879;52.986;6.282;2023-04-24T02:48:49;10.30;99.90
51825;DHT22;37879;52.986;6.282;2023-04-24T02:51:15;10.30;99.90
51825;DHT22;37879;52.986;6.282;2023-04-24T02:53:41;10.30;99.90
51825;DHT22;37879;52.986;6.282;2023-04-24T02:56:06;10.30;99.90
51825;DHT22;37879;52.986;6.282;2023-04-24T02:58:32;10.90;99.90
51825;DHT22;37879;52.986;6.282;2023-04-24T03:00:58;10.50;99.90
51825;DHT22;37879;52.986;6.282;2023-04-24T03:03:23;10.30;99.90
51825;DHT22;37879;52.986;6.282;2023-04-24T03:05:49;10.30;99.90
51825;DHT22;37879;52.986;6.282;2023-04-24T03:08:16;10.20;99.90
51825;DHT22;37879;52.986;6.282;2023-04-24T03:10:42;10.20;99.90
51825;DHT22;37879;52.986;6.282;2023-04-24T03:13:07;10.20;99.90
51825;DHT22;37879;52.986;6.282;2023-04-24T03:15:33;10.20;99.90
51825;DHT22;37879;52.986;6.282;2023-04-24T03:17:58;10.20;99.90
51825;DHT22;37879;52.986;6.282;2023-04-24T03:20:26;10.40;99.90
51825;DHT22;37879;52.986;6.282;2023-04-24T03:22:51;10.20;99.90
51825;DHT22;37879;52.986;6.282;2023-04-24T03:25:17;10.20;99.90
51825;DHT22;37879;52.986;6.282;2023-04-24T03:27:42;10.20;99.90
51825;DHT22;37879;52.986;6.282;2023-04-24T03:30:08;10.60;99.90
51825;DHT22;37879;52.986;6.282;2023-04-24T03:32:34;10.20;99.90
51825;DHT22;37879;52.986;6.282;2023-04-24T03:35:00;10.20;99.90
51825;DHT22;37879;52.986;6.282;2023-04-24T03:37:25;10.20;99.90
51825;DHT22;37879;52.986;6.282;2023-04-24T03:39:52;10.20;99.90
51825;DHT22;37879;52.986;6.282;2023-04-24T03:42:17;10.40;99.90
51825;DHT22;37879;52.986;6.282;2023-04-24T03:44:43;10.20;99.90
51825;DHT22;37879;52.986;6.282;2023-04-24T03:47:09;10.60;99.90
51825;DHT22;37879;52.986;6.282;2023-04-24T03:49:34;10.20;99.90
51825;DHT22;37879;52.986;6.282;2023-04-24T03:52:00;10.20;99.90
51825;DHT22;37879;52.986;6.282;2023-04-24T03:54:26;10.20;99.90
51825;DHT22;37879;52.986;6.282;2023-04-24T03:56:52;10.20;99.90
51825;DHT22;37879;52.986;6.282;2023-04-24T03:59:17;10.80;99.90
51825;DHT22;37879;52.986;6.282;2023-04-24T04:01:43;10.20;99.90
51825;DHT22;37879;52.986;6.282;2023-04-24T04:04:09;10.10;99.90
51825;DHT22;37879;52.986;6.282;2023-04-24T04:06:34;10.10;99.90
51825;DHT22;37879;52.986;6.282;2023-04-24T04:09:01;10.20;99.90
51825;DHT22;37879;52.986;6.282;2023-04-24T04:11:27;10.20;99.90
51825;DHT22;37879;52.986;6.282;2023-04-24T04:13:53;10.10;99.90
51825;DHT22;37879;52.986;6.282;2023-04-24T04:16:18;10.10;99.90
51825;DHT22;37879;52.986;6.282;2023-04-24T04:18:44;10.20;99.90
51825;DHT22;37879;52.986;6.282;2023-04-24T04:21:11;10.10;99.90
51825;DHT22;37879;52.986;6.282;2023-04-24T04:23:36;10.10;99.90
51825;DHT22;37879;52.986;6.282;2023-04-24T04:26:03;10.20;99.90
51825;DHT22;37879;52.986;6.282;2023-04-24T04:28:29;10.10;99.90
51825;DHT22;37879;52.986;6.282;2023-04-24T04:30:57;10.10;99.90
51825;DHT22;37879;52.986;6.282;2023-04-24T04:33:23;10.10;99.90
51825;DHT22;37879;52.986;6.282;2023-04-24T04:35:50;10.10;99.90
51825;DHT22;37879;52.986;6.282;2023-04-24T04:38:18;10.10;99.90
51825;DHT22;37879;52.986;6.282;2023-04-24T04:40:44;10.10;99.90
51825;DHT22;37879;52.986;6.282;2023-04-24T04:43:10;10.10;99.90
51825;DHT22;37879;52.986;6.282;2023-04-24T04:45:37;10.20;99.90
51825;DHT22;37879;52.986;6.282;2023-04-24T04:48:04;10.10;99.90
51825;DHT22;37879;52.986;6.282;2023-04-24T04:50:30;10.10;99.90
51825;DHT22;37879;52.986;6.282;2023-04-24T04:52:55;10.30;99.90
51825;DHT22;37879;52.986;6.282;2023-04-24T04:55:21;10.10;99.90
51825;DHT22;37879;52.986;6.282;2023-04-24T04:57:53;10.10;99.90
51825;DHT22;37879;52.986;6.282;2023-04-24T05:00:20;10.10;99.90
51825;DHT22;37879;52.986;6.282;2023-04-24T05:02:46;10.10;99.90
51825;DHT22;37879;52.986;6.282;2023-04-24T05:05:12;10.60;99.90
51825;DHT22;37879;52.986;6.282;2023-04-24T05:07:37;10.20;99.90
51825;DHT22;37879;52.986;6.282;2023-04-24T05:10:03;10.00;99.90
51825;DHT22;37879;52.986;6.282;2023-04-24T05:12:29;10.00;99.90
51825;DHT22;37879;52.986;6.282;2023-04-24T05:14:55;10.00;99.90
51825;DHT22;37879;52.986;6.282;2023-04-24T05:17:20;10.00;99.90
51825;DHT22;37879;52.986;6.282;2023-04-24T05:19:46;10.60;99.90
51825;DHT22;37879;52.986;6.282;2023-04-24T05:22:12;10.00;99.90
51825;DHT22;37879;52.986;6.282;2023-04-24T05:24:38;9.90;99.90
51825;DHT22;37879;52.986;6.282;2023-04-24T05:27:04;9.90;99.90
51825;DHT22;37879;52.986;6.282;2023-04-24T05:29:32;9.90;99.90
51825;DHT22;37879;52.986;6.282;2023-04-24T05:31:58;9.90;99.90
51825;DHT22;37879;52.986;6.282;2023-04-24T05:34:24;9.90;99.90
51825;DHT22;37879;52.986;6.282;2023-04-24T05:36:50;9.90;99.90
51825;DHT22;37879;52.986;6.282;2023-04-24T05:39:16;9.80;99.90
51825;DHT22;37879;52.986;6.282;2023-04-24T05:41:42;9.80;99.90
51825;DHT22;37879;52.986;6.282;2023-04-24T05:44:08;9.80;99.90
51825;DHT22;37879;52.986;6.282;2023-04-24T05:46:34;9.80;99.90
51825;DHT22;37879;52.986;6.282;2023-04-24T05:49:00;9.80;99.90
51825;DHT22;37879;52.986;6.282;2023-04-24T05:51:25;9.80;99.90
51825;DHT22;37879;52.986;6.282;2023-04-24T05:53:51;9.80;99.90
51825;DHT22;37879;52.986;6.282;2023-04-24T05:56:18;9.70;99.90
51825;DHT22;37879;52.986;6.282;2023-04-24T05:58:44;9.70;99.90
51825;DHT22;37879;52.986;6.282;2023-04-24T06:01:10;9.70;99.90
51825;DHT22;37879;52.986;6.282;2023-04-24T06:03:35;9.80;99.90
51825;DHT22;37879;52.986;6.282;2023-04-24T06:06:01;9.70;99.90
51825;DHT22;37879;52.986;6.282;2023-04-24T06:08:27;9.70;99.90
51825;DHT22;37879;52.986;6.282;2023-04-24T06:10:52;9.60;99.90
51825;DHT22;37879;52.986;6.282;2023-04-24T06:13:18;9.70;99.90
51825;DHT22;37879;52.986;6.282;2023-04-24T06:15:44;9.70;99.90
51825;DHT22;37879;52.986;6.282;2023-04-24T06:18:09;10.20;99.90
51825;DHT22;37879;52.986;6.282;2023-04-24T06:20:38;9.70;99.90
51825;DHT22;37879;52.986;6.282;2023-04-24T06:23:04;9.80;99.90
51825;DHT22;37879;52.986;6.282;2023-04-24T06:25:30;9.80;99.90
51825;DHT22;37879;52.986;6.282;2023-04-24T06:27:56;9.80;99.90
51825;DHT22;37879;52.986;6.282;2023-04-24T06:30:22;9.70;99.90
51825;DHT22;37879;52.986;6.282;2023-04-24T06:32:48;9.80;99.90
51825;DHT22;37879;52.986;6.282;2023-04-24T06:35:13;9.70;99.90
51825;DHT22;37879;52.986;6.282;2023-04-24T06:37:43;9.70;99.90
51825;DHT22;37879;52.986;6.282;2023-04-24T06:40:09;9.70;99.90
51825;DHT22;37879;52.986;6.282;2023-04-24T06:42:35;9.80;99.90
51825;DHT22;37879;52.986;6.282;2023-04-24T06:45:01;9.70;99.90
51825;DHT22;37879;52.986;6.282;2023-04-24T06:47:27;9.70;99.90
51825;DHT22;37879;52.986;6.282;2023-04-24T06:49:53;9.80;99.90
51825;DHT22;37879;52.986;6.282;2023-04-24T06:52:19;9.70;99.90
51825;DHT22;37879;52.986;6.282;2023-04-24T06:54:45;9.80;99.90
51825;DHT22;37879;52.986;6.282;2023-04-24T06:57:11;9.70;99.90
51825;DHT22;37879;52.986;6.282;2023-04-24T06:59:37;10.60;99.90
51825;DHT22;37879;52.986;6.282;2023-04-24T07:02:02;9.70;99.90
51825;DHT22;37879;52.986;6.282;2023-04-24T07:04:28;9.80;99.90
51825;DHT22;37879;52.986;6.282;2023-04-24T07:06:54;9.70;99.90
51825;DHT22;37879;52.986;6.282;2023-04-24T07:09:22;9.70;99.90
51825;DHT22;37879;52.986;6.282;2023-04-24T07:11:49;9.80;99.90
51825;DHT22;37879;52.986;6.282;2023-04-24T07:14:15;9.70;99.90
51825;DHT22;37879;52.986;6.282;2023-04-24T07:16:42;10.30;99.90
51825;DHT22;37879;52.986;6.282;2023-04-24T07:19:07;9.70;99.90
51825;DHT22;37879;52.986;6.282;2023-04-24T07:21:33;9.70;99.90
51825;DHT22;37879;52.986;6.282;2023-04-24T07:23:59;10.00;99.90
51825;DHT22;37879;52.986;6.282;2023-04-24T07:26:26;9.70;99.90
51825;DHT22;37879;52.986;6.282;2023-04-24T07:28:52;9.70;99.90
51825;DHT22;37879;52.986;6.282;2023-04-24T07:31:18;9.70;99.90
51825;DHT22;37879;52.986;6.282;2023-04-24T07:33:44;9.70;99.90
51825;DHT22;37879;52.986;6.282;2023-04-24T07:36:09;9.70;99.90
51825;DHT22;37879;52.986;6.282;2023-04-24T07:38:44;9.70;99.90
51825;DHT22;37879;52.986;6.282;2023-04-24T07:41:10;9.60;99.90
51825;DHT22;37879;52.986;6.282;2023-04-24T07:43:36;9.60;99.90
51825;DHT22;37879;52.986;6.282;2023-04-24T07:46:01;9.50;99.90
51825;DHT22;37879;52.986;6.282;2023-04-24T07:48:27;9.40;99.90
51825;DHT22;37879;52.986;6.282;2023-04-24T07:50:53;9.40;99.90
51825;DHT22;37879;52.986;6.282;2023-04-24T07:53:19;9.90;99.90
51825;DHT22;37879;52.986;6.282;2023-04-24T07:55:44;9.40;99.90
51825;DHT22;37879;52.986;6.282;2023-04-24T07:58:10;9.30;99.90
51825;DHT22;37879;52.986;6.282;2023-04-24T08:00:35;9.30;99.90
51825;DHT22;37879;52.986;6.282;2023-04-24T08:03:01;9.20;99.90
51825;DHT22;37879;52.986;6.282;2023-04-24T08:05:27;9.20;99.90
51825;DHT22;37879;52.986;6.282;2023-04-24T08:07:54;9.20;99.90
51825;DHT22;37879;52.986;6.282;2023-04-24T08:10:21;9.20;99.90
51825;DHT22;37879;52.986;6.282;2023-04-24T08:12:47;9.20;99.90
51825;DHT22;37879;52.986;6.282;2023-04-24T08:15:13;9.20;99.90
51825;DHT22;37879;52.986;6.282;2023-04-24T08:17:39;9.20;99.90
51825;DHT22;37879;52.986;6.282;2023-04-24T08:20:05;9.20;99.90
51825;DHT22;37879;52.986;6.282;2023-04-24T08:22:35;9.20;99.90
51825;DHT22;37879;52.986;6.282;2023-04-24T08:25:01;9.10;99.90
51825;DHT22;37879;52.986;6.282;2023-04-24T08:27:27;9.10;99.90
51825;DHT22;37879;52.986;6.282;2023-04-24T08:29:54;9.10;99.90
51825;DHT22;37879;52.986;6.282;2023-04-24T08:32:19;9.50;99.90
51825;DHT22;37879;52.986;6.282;2023-04-24T08:34:45;9.60;99.90
51825;DHT22;37879;52.986;6.282;2023-04-24T08:37:11;9.20;99.90
51825;DHT22;37879;52.986;6.282;2023-04-24T08:39:37;9.70;99.90
51825;DHT22;37879;52.986;6.282;2023-04-24T08:42:03;9.20;99.90
51825;DHT22;37879;52.986;6.282;2023-04-24T08:44:33;8.90;99.90
51825;DHT22;37879;52.986;6.282;2023-04-24T08:47:01;8.90;99.90
51825;DHT22;37879;52.986;6.282;2023-04-24T08:49:28;8.90;99.90
51825;DHT22;37879;52.986;6.282;2023-04-24T08:51:54;9.40;99.90
51825;DHT22;37879;52.986;6.282;2023-04-24T08:54:20;9.00;99.90
51825;DHT22;37879;52.986;6.282;2023-04-24T08:56:47;9.00;99.90
51825;DHT22;37879;52.986;6.282;2023-04-24T08:59:14;10.00;99.90
51825;DHT22;37879;52.986;6.282;2023-04-24T09:01:40;10.10;99.90
51825;DHT22;37879;52.986;6.282;2023-04-24T09:04:08;9.10;99.90
51825;DHT22;37879;52.986;6.282;2023-04-24T09:06:35;9.20;99.90
51825;DHT22;37879;52.986;6.282;2023-04-24T09:09:02;9.20;99.90
51825;DHT22;37879;52.986;6.282;2023-04-24T09:11:30;9.30;99.90
51825;DHT22;37879;52.986;6.282;2023-04-24T09:13:57;9.30;99.90
51825;DHT22;37879;52.986;6.282;2023-04-24T09:16:24;9.30;99.90
51825;DHT22;37879;52.986;6.282;2023-04-24T09:18:50;9.30;99.90
51825;DHT22;37879;52.986;6.282;2023-04-24T09:21:16;9.90;99.90
51825;DHT22;37879;52.986;6.282;2023-04-24T09:23:42;9.20;99.90
51825;DHT22;37879;52.986;6.282;2023-04-24T09:26:09;9.00;99.90
51825;DHT22;37879;52.986;6.282;2023-04-24T09:28:37;8.90;99.90
51825;DHT22;37879;52.986;6.282;2023-04-24T09:31:11;8.90;99.90
51825;DHT22;37879;52.986;6.282;2023-04-24T09:33:37;8.80;99.90
51825;DHT22;37879;52.986;6.282;2023-04-24T09:36:03;8.80;99.90
51825;DHT22;37879;52.986;6.282;2023-04-24T09:38:36;8.80;99.90
51825;DHT22;37879;52.986;6.282;2023-04-24T09:41:05;8.90;99.90
51825;DHT22;37879;52.986;6.282;2023-04-24T09:43:31;9.00;99.90
51825;DHT22;37879;52.986;6.282;2023-04-24T09:45:58;9.10;99.90
51825;DHT22;37879;52.986;6.282;2023-04-24T09:48:35;9.30;99.90
51825;DHT22;37879;52.986;6.282;2023-04-24T09:51:02;9.30;99.90
51825;DHT22;37879;52.986;6.282;2023-04-24T09:53:30;9.40;99.90
51825;DHT22;37879;52.986;6.282;2023-04-24T09:55:56;9.60;99.90
51825;DHT22;37879;52.986;6.282;2023-04-24T09:58:28;9.70;99.90
51825;DHT22;37879;52.986;6.282;2023-04-24T10:00:55;9.90;99.90
51825;DHT22;37879;52.986;6.282;2023-04-24T10:03:24;9.90;99.90
51825;DHT22;37879;52.986;6.282;2023-04-24T10:05:52;10.00;99.90
51825;DHT22;37879;52.986;6.282;2023-04-24T10:08:18;9.90;99.90
51825;DHT22;37879;52.986;6.282;2023-04-24T10:10:45;9.80;99.90
51825;DHT22;37879;52.986;6.282;2023-04-24T10:13:13;9.70;99.90
51825;DHT22;37879;52.986;6.282;2023-04-24T10:15:41;9.60;99.90
51825;DHT22;37879;52.986;6.282;2023-04-24T10:18:07;9.60;99.90
51825;DHT22;37879;52.986;6.282;2023-04-24T10:20:35;9.50;99.90
51825;DHT22;37879;52.986;6.282;2023-04-24T10:23:02;9.50;99.90
51825;DHT22;37879;52.986;6.282;2023-04-24T10:25:31;9.40;99.90
51825;DHT22;37879;52.986;6.282;2023-04-24T10:27:58;9.40;99.90
51825;DHT22;37879;52.986;6.282;2023-04-24T10:30:30;9.40;99.90
51825;DHT22;37879;52.986;6.282;2023-04-24T10:32:59;9.40;99.90
51825;DHT22;37879;52.986;6.282;2023-04-24T10:35:24;9.40;99.90
51825;DHT22;37879;52.986;6.282;2023-04-24T10:38:11;9.40;99.90
51825;DHT22;37879;52.986;6.282;2023-04-24T10:40:37;9.50;99.90
51825;DHT22;37879;52.986;6.282;2023-04-24T10:43:07;9.70;99.90
51825;DHT22;37879;52.986;6.282;2023-04-24T10:45:35;9.70;99.90
51825;DHT22;37879;52.986;6.282;2023-04-24T10:48:08;10.10;99.90
51825;DHT22;37879;52.986;6.282;2023-04-24T10:50:45;9.70;99.90
51825;DHT22;37879;52.986;6.282;2023-04-24T10:53:17;9.70;99.90
51825;DHT22;37879;52.986;6.282;2023-04-24T10:58:10;9.60;99.90
51825;DHT22;37879;52.986;6.282;2023-04-24T11:00:38;9.60;99.90
51825;DHT22;37879;52.986;6.282;2023-04-24T11:03:05;9.60;99.90
51825;DHT22;37879;52.986;6.282;2023-04-24T11:05:58;9.70;99.90
51825;DHT22;37879;52.986;6.282;2023-04-24T11:08:26;9.70;99.90
51825;DHT22;37879;52.986;6.282;2023-04-24T11:11:00;9.80;99.90
51825;DHT22;37879;52.986;6.282;2023-04-24T11:13:28;9.80;99.90
51825;DHT22;37879;52.986;6.282;2023-04-24T11:21:43;10.00;99.90
51825;DHT22;37879;52.986;6.282;2023-04-24T11:24:30;10.00;99.90
51825;DHT22;37879;52.986;6.282;2023-04-24T11:29:44;9.80;99.90
51825;DHT22;37879;52.986;6.282;2023-04-24T11:32:18;9.70;99.90
51825;DHT22;37879;52.986;6.282;2023-04-24T11:37:23;9.50;99.90
51825;DHT22;37879;52.986;6.282;2023-04-24T11:39:57;9.40;99.90
51825;DHT22;37879;52.986;6.282;2023-04-24T11:42:24;9.40;99.90
51825;DHT22;37879;52.986;6.282;2023-04-24T11:44:52;9.30;99.90
51825;DHT22;37879;52.986;6.282;2023-04-24T11:47:18;9.40;99.90
51825;DHT22;37879;52.986;6.282;2023-04-24T11:49:44;9.30;99.90
51825;DHT22;37879;52.986;6.282;2023-04-24T11:52:10;9.40;99.90
51825;DHT22;37879;52.986;6.282;2023-04-24T11:54:36;9.60;99.90
51825;DHT22;37879;52.986;6.282;2023-04-24T11:57:05;9.90;99.90
51825;DHT22;37879;52.986;6.282;2023-04-24T11:59:41;9.80;99.90
51825;DHT22;37879;52.986;6.282;2023-04-24T12:02:08;9.90;99.90
51825;DHT22;37879;52.986;6.282;2023-04-24T12:04:42;10.00;99.90
51825;DHT22;37879;52.986;6.282;2023-04-24T12:07:08;10.20;99.90
51825;DHT22;37879;52.986;6.282;2023-04-24T12:09:46;10.40;99.90
51825;DHT22;37879;52.986;6.282;2023-04-24T12:12:16;10.30;99.90
51825;DHT22;37879;52.986;6.282;2023-04-24T12:14:48;10.30;99.90
51825;DHT22;37879;52.986;6.282;2023-04-24T12:17:15;10.20;99.90
51825;DHT22;37879;52.986;6.282;2023-04-24T12:19:46;10.60;99.90
51825;DHT22;37879;52.986;6.282;2023-04-24T12:22:12;10.00;99.90
51825;DHT22;37879;52.986;6.282;2023-04-24T12:24:56;10.80;99.90
51825;DHT22;37879;52.986;6.282;2023-04-24T12:27:22;10.40;99.90
51825;DHT22;37879;52.986;6.282;2023-04-24T12:29:58;10.10;99.90
51825;DHT22;37879;52.986;6.282;2023-04-24T12:32:25;10.10;99.90
51825;DHT22;37879;52.986;6.282;2023-04-24T12:34:52;10.10;99.90
51825;DHT22;37879;52.986;6.282;2023-04-24T12:37:18;10.20;99.90
51825;DHT22;37879;52.986;6.282;2023-04-24T12:42:30;10.10;99.90
51825;DHT22;37879;52.986;6.282;2023-04-24T12:45:05;10.10;99.90
51825;DHT22;37879;52.986;6.282;2023-04-24T12:47:32;10.00;99.90
51825;DHT22;37879;52.986;6.282;2023-04-24T12:49:59;9.90;99.90
51825;DHT22;37879;52.986;6.282;2023-04-24T12:52:28;9.90;99.90
51825;DHT22;37879;52.986;6.282;2023-04-24T12:54:56;10.00;99.90
51825;DHT22;37879;52.986;6.282;2023-04-24T12:57:23;10.10;99.90
51825;DHT22;37879;52.986;6.282;2023-04-24T12:59:48;10.10;99.90
51825;DHT22;37879;52.986;6.282;2023-04-24T13:02:14;10.80;99.90
51825;DHT22;37879;52.986;6.282;2023-04-24T13:04:44;10.00;99.90
51825;DHT22;37879;52.986;6.282;2023-04-24T13:07:10;9.90;99.90
51825;DHT22;37879;52.986;6.282;2023-04-24T13:09:36;10.00;99.90
51825;DHT22;37879;52.986;6.282;2023-04-24T13:12:02;10.00;99.90
51825;DHT22;37879;52.986;6.282;2023-04-24T13:14:28;10.00;99.90
51825;DHT22;37879;52.986;6.282;2023-04-24T13:16:53;9.90;99.90
51825;DHT22;37879;52.986;6.282;2023-04-24T13:19:19;9.80;99.90
51825;DHT22;37879;52.986;6.282;2023-04-24T13:21:45;10.40;99.90
51825;DHT22;37879;52.986;6.282;2023-04-24T13:24:11;9.90;99.90
51825;DHT22;37879;52.986;6.282;2023-04-24T13:26:36;9.90;99.90
51825;DHT22;37879;52.986;6.282;2023-04-24T13:29:02;10.10;99.90
51825;DHT22;37879;52.986;6.282;2023-04-24T13:31:29;10.20;99.90
51825;DHT22;37879;52.986;6.282;2023-04-24T13:33:55;10.20;99.90
51825;DHT22;37879;52.986;6.282;2023-04-24T13:36:20;10.30;99.90
51825;DHT22;37879;52.986;6.282;2023-04-24T13:38:46;10.30;99.90
51825;DHT22;37879;52.986;6.282;2023-04-24T13:41:12;10.30;99.90
51825;DHT22;37879;52.986;6.282;2023-04-24T13:43:37;10.30;99.90
51825;DHT22;37879;52.986;6.282;2023-04-24T13:46:03;10.30;99.90
51825;DHT22;37879;52.986;6.282;2023-04-24T13:48:30;10.30;99.90
51825;DHT22;37879;52.986;6.282;2023-04-24T13:50:55;10.70;99.90
51825;DHT22;37879;52.986;6.282;2023-04-24T13:53:21;10.30;99.90
51825;DHT22;37879;52.986;6.282;2023-04-24T13:55:47;10.20;99.90
51825;DHT22;37879;52.986;6.282;2023-04-24T13:58:13;10.10;99.90
51825;DHT22;37879;52.986;6.282;2023-04-24T14:00:39;10.00;99.90
51825;DHT22;37879;52.986;6.282;2023-04-24T14:03:05;10.00;99.90
51825;DHT22;37879;52.986;6.282;2023-04-24T14:05:31;9.90;99.90
51825;DHT22;37879;52.986;6.282;2023-04-24T14:07:57;9.90;99.90
51825;DHT22;37879;52.986;6.282;2023-04-24T14:10:22;10.40;99.90
51825;DHT22;37879;52.986;6.282;2023-04-24T14:12:48;9.80;99.90
51825;DHT22;37879;52.986;6.282;2023-04-24T14:15:14;9.80;99.90
51825;DHT22;37879;52.986;6.282;2023-04-24T14:17:40;9.70;99.90
51825;DHT22;37879;52.986;6.282;2023-04-24T14:20:06;9.60;99.90
51825;DHT22;37879;52.986;6.282;2023-04-24T14:22:32;9.60;99.90
51825;DHT22;37879;52.986;6.282;2023-04-24T14:24:58;9.50;99.90
51825;DHT22;37879;52.986;6.282;2023-04-24T14:27:24;9.50;99.90
51825;DHT22;37879;52.986;6.282;2023-04-24T14:29:51;9.40;99.90
51825;DHT22;37879;52.986;6.282;2023-04-24T14:32:17;9.40;99.90
51825;DHT22;37879;52.986;6.282;2023-04-24T14:34:42;9.40;99.90
51825;DHT22;37879;52.986;6.282;2023-04-24T14:37:08;9.80;99.90
51825;DHT22;37879;52.986;6.282;2023-04-24T14:39:34;10.30;99.90
51825;DHT22;37879;52.986;6.282;2023-04-24T14:42:00;9.60;99.90
51825;DHT22;37879;52.986;6.282;2023-04-24T14:44:26;9.60;99.90
51825;DHT22;37879;52.986;6.282;2023-04-24T14:46:52;9.60;99.90
51825;DHT22;37879;52.986;6.282;2023-04-24T14:49:18;9.50;99.90
51825;DHT22;37879;52.986;6.282;2023-04-24T14:51:44;9.50;99.90
51825;DHT22;37879;52.986;6.282;2023-04-24T14:54:09;9.50;99.90
51825;DHT22;37879;52.986;6.282;2023-04-24T14:56:35;9.70;99.90
51825;DHT22;37879;52.986;6.282;2023-04-24T14:59:01;9.70;99.90
51825;DHT22;37879;52.986;6.282;2023-04-24T15:01:27;10.40;99.90
51825;DHT22;37879;52.986;6.282;2023-04-24T15:03:53;9.30;99.90
51825;DHT22;37879;52.986;6.282;2023-04-24T15:06:18;9.20;99.90
51825;DHT22;37879;52.986;6.282;2023-04-24T15:08:45;9.10;99.90
51825;DHT22;37879;52.986;6.282;2023-04-24T15:11:11;9.00;99.90
51825;DHT22;37879;52.986;6.282;2023-04-24T15:13:37;9.10;99.90
51825;DHT22;37879;52.986;6.282;2023-04-24T15:16:03;9.10;99.90
51825;DHT22;37879;52.986;6.282;2023-04-24T15:18:29;9.20;99.90
51825;DHT22;37879;52.986;6.282;2023-04-24T15:20:55;9.20;99.90
51825;DHT22;37879;52.986;6.282;2023-04-24T15:23:21;9.30;99.90
51825;DHT22;37879;52.986;6.282;2023-04-24T15:25:47;9.30;99.90
51825;DHT22;37879;52.986;6.282;2023-04-24T15:28:12;9.30;99.90
51825;DHT22;37879;52.986;6.282;2023-04-24T15:30:38;9.20;99.90
51825;DHT22;37879;52.986;6.282;2023-04-24T15:33:04;9.10;99.90
51825;DHT22;37879;52.986;6.282;2023-04-24T15:35:30;9.00;99.90
51825;DHT22;37879;52.986;6.282;2023-04-24T15:37:55;9.10;99.90
51825;DHT22;37879;52.986;6.282;2023-04-24T15:40:21;8.90;99.90
51825;DHT22;37879;52.986;6.282;2023-04-24T15:42:48;8.90;99.90
51825;DHT22;37879;52.986;6.282;2023-04-24T15:45:13;9.50;99.90
51825;DHT22;37879;52.986;6.282;2023-04-24T15:47:39;9.00;99.90
51825;DHT22;37879;52.986;6.282;2023-04-24T15:50:05;9.00;99.90